Gunnison, CO (81230)

12:17 AM MDT on August 29, 2015 (GMT -0600)
Taylor St. | | Change Station
CLOSE
Current Station
Personal Weather Station
Location: Gunnison, CO
Elevation: 7687 ft
Nearby Weather Stations

Elev 7687 ft 38.54 °N, 106.92 °W | Updated 4 minutes ago

Clear
Clear
50.2 °F
Feels Like 50.2 °F
N
1.7
Wind Variable Wind from NNE

Today
High -- | Low -- °F
--% Chance of Precip.
Yesterday
High -- | Low -- °F
Precip. -- in
6:34 AM 7:42 PM
Full, 100% visible
Pressure 30.46 in
Visibility 10.0 miles
Clouds Clear
Dew Point 50 °F
Humidity 98%
Rainfall 0.00 in
Snow Depth Not available.
UV 0 out of 12
Pollen 9.40 out of 12
Air Quality Not available.
Flu Activity Not available.
METAR KGUC 290615Z AUTO 06004KT 10SM CLR 12/05 A3046 RMK AO1
Pressure 30.46 in
Visibility 10.0 miles
Clouds Clear
Dew Point 50 °F
Humidity 98%
Rainfall 0.00 in
Snow Depth Not available.
UV 0 out of 12
Pollen 9.40 out of 12
Air Quality Not available.
Flu Activity Not available.
METAR KGUC 290615Z AUTO 06004KT 10SM CLR 12/05 A3046 RMK AO1

10-Day Weather Forecast

×

Almanac

Astronomy

Aug. 29, 2015 Rise Set
Actual Time
Civil Twilight
Nautical Twilight
Astronomical Twilight
Moon
Length of Visible Light
Length of Day
Tomorrow will be .
, % of the Moon is Illuminated

Today's Extremes

State Highs State Lows

Community

WunderPhotos

Upload Photos

1,850,622 photos uploaded!

WunderBlogs® & News

Nearby

Air Quality

  Air Quality AQ Index Pollutant
Not available.

Snow Depth

Station Depth Elevation

Earthquake Activity

City Distance Mag. Time & Date
Minimum magnitude displayed is 2.5.

Coastal Water Temperatures

Place Temperature

Stations

Nearby Weather Stations

Station Location Temp. Windchill Dew Point Humidity Wind Precip. Elev Updated Type